La Grande, OR

11:59 PM PDT on October 21, 2014 (GMT -0700)
La Grande | Change Station
CLOSE
Current Station
Personal Weather Station
Location: La Grande, OR
Elevation: 2850 ft
Nearby Weather Stations

Elev 2850 ft 45.33 °N, 118.10 °W | Updated 8 seconds ago

Partly Cloudy
Partly Cloudy
37.6 °F
Feels Like 38 °F
N
0.0
Wind Variable Wind from North
Gusts 0.0 mph

Today
High -- | Low -- °F
--% Chance of Precip.
Yesterday
High -- | Low -- °F
Precip. -- in
7:16 AM 5:57 PM
Waning Crescent, 3% visible
Pressure 30.01 in
Visibility 10.0 miles
Clouds Clear
Windchill 38 °F
Dew Point 33 °F
Humidity 84%
Rainfall 0.04 in
Snow Depth 0 in , 0 in , 2 in
UV 0 out of 12
Pollen 2.10 out of 12
Air Quality Not available.
Flu Activity Sporadic
METAR KLGD 220655Z AUTO 00000KT 10SM CLR 01/M05 A3001 RMK AO1

More Conditions Fewer Conditions

Pressure 30.01 in
Visibility 10.0 miles
Clouds Clear
Windchill 38 °F
Dew Point 33 °F
Humidity 84%
Rainfall 0.04 in
Snow Depth 0 in , 0 in , 2 in
UV 0 out of 12
Pollen 2.10 out of 12
Air Quality Not available.
Flu Activity Sporadic
METAR KLGD 220655Z AUTO 00000KT 10SM CLR 01/M05 A3001 RMK AO1

More Conditions Fewer Conditions

10-Day Weather Forecast

Almanac

Astronomy

Oct. 21, 2014 Rise Set
Actual Time 7:16 AM PDT 5:57 PM PDT
Civil Twilight 6:46 AM PDT 6:27 PM PDT
Nautical Twilight 6:12 AM PDT 7:01 PM PDT
Astronomical Twilight 5:38 AM PDT 7:35 PM PDT
Moon 4:59 AM PDT (10/21) 4:58 PM PDT (10/21)
Length of Visible Light 11h 40m
Length of Day
10h 40m
Tomorrow will be 3m 0s shorter.
Waning Crescent, 3% of the Moon is Illuminated
Oct 22
Waning Crescent
Oct 23
New
Oct 30
First Quarter
Nov 6
Full
Nov 14
Last Quarter

Yesterday's Extremes

State Highs State Lows

Community

WunderPhotos

Upload Photos

1,763,884 photos uploaded!

Nearby

Snow Depth

Station Depth Elevation
Bowman Springs 0 in 4580 ft
Beaver Reservoir 0 in 5150 ft
Emigrant Springs 2 in 3925 ft
County Line 0 in 4800 ft
High Ridge 0 in 4980 ft

Earthquake Activity

City Distance Mag. Time & Date
No recent earthquake activity has been reported nearby.
Minimum magnitude displayed is 2.5.

Coastal Water Temperatures

Place Temperature
No Stations Reporting

Nearby Weather Stations